Main page
METAR-TAF:

METAR-TAF

Airports :

Tri-City Airport

Parsons, Kansas, United States

latitude: 37-19-40N, longitude: 095-30-15W, elevation: 899 ft

Current weather observation

The report was made 59 minutes ago, at 00:52 UTC
Wind 9 mph from the South
Temperature 93°F
Humidity 50%
Pressure 29.85 in. Hg
Visibility: 10 miles
Clear sky

METAR: KPPF 250052Z AUTO 18008KT 10SM CLR 34/22 A2985 RMK AO2 SLP095 T03390217

Time: 20:51 (01:51 UTC)


TAF: missing

Weather observations and forecasts of more than 4000 airports (METAR and TAF reports).

The available stations are represented by yellow and red dots on the map.

Hover mouse over dot to see the name of the station.

Then click to see weather observations and forecasts.

To change the map : click on the green buttons with a black cross to zoom in, on the green button with a dash to zoom out, or on the green arrows for adjacent maps.


METAR-TAF: